createdAt,value
2019-04-20T00:02:08.337Z,100.00
2019-04-20T00:04:35.233Z,100.00
2019-04-20T00:07:02.020Z,100.00
2019-04-20T00:09:34.626Z,100.00
2019-04-20T00:12:10.844Z,100.00
2019-04-20T00:14:36.265Z,100.00
2019-04-20T00:17:05.138Z,100.00
2019-04-20T00:19:40.749Z,100.00
2019-04-20T00:22:14.894Z,100.00
2019-04-20T00:25:06.647Z,100.00
2019-04-20T00:27:55.752Z,100.00
2019-04-20T00:30:28.773Z,100.00
2019-04-20T00:32:51.251Z,100.00
2019-04-20T00:35:08.261Z,100.00
2019-04-20T00:37:38.058Z,100.00
2019-04-20T00:40:07.874Z,100.00
2019-04-20T00:42:44.955Z,100.00
2019-04-20T00:45:16.230Z,100.00
2019-04-20T00:47:47.808Z,100.00
2019-04-20T00:50:28.295Z,100.00
2019-04-20T00:52:55.779Z,100.00
2019-04-20T00:55:12.862Z,100.00
2019-04-20T00:57:47.523Z,100.00
2019-04-20T01:00:33.912Z,100.00
2019-04-20T01:02:56.915Z,100.00
2019-04-20T01:05:43.382Z,100.00
2019-04-20T01:08:12.921Z,100.00
2019-04-20T01:10:47.250Z,100.00
2019-04-20T01:13:19.813Z,100.00
2019-04-20T01:15:52.738Z,100.00
2019-04-20T01:18:16.581Z,100.00
2019-04-20T01:20:45.833Z,100.00
2019-04-20T01:23:17.859Z,100.00
2019-04-20T01:25:52.005Z,100.00
2019-04-20T01:28:32.411Z,100.00
2019-04-20T01:31:01.370Z,100.00
2019-04-20T01:33:31.818Z,100.00
2019-04-20T01:36:03.493Z,100.00
2019-04-20T01:38:34.262Z,100.00
2019-04-20T01:40:52.706Z,100.00
2019-04-20T01:43:22.713Z,100.00
2019-04-20T01:45:59.306Z,100.00
2019-04-20T01:48:28.722Z,100.00
2019-04-20T01:51:06.574Z,100.00
2019-04-20T01:53:44.322Z,100.00
2019-04-20T01:56:18.136Z,100.00
2019-04-20T01:59:04.612Z,100.00
2019-04-20T02:01:56.521Z,100.00
2019-04-20T02:04:32.294Z,100.00
2019-04-20T02:07:00.473Z,100.00
2019-04-20T02:09:31.153Z,100.00
2019-04-20T02:12:05.042Z,100.00
2019-04-20T02:14:38.795Z,100.00
2019-04-20T02:17:11.715Z,100.00
2019-04-20T02:19:51.014Z,100.00
2019-04-20T02:22:15.696Z,100.00
2019-04-20T02:24:34.361Z,100.00
2019-04-20T02:27:04.161Z,100.00
2019-04-20T02:30:02.803Z,100.00
2019-04-20T02:32:29.254Z,100.00
2019-04-20T02:35:29.921Z,100.00
2019-04-20T02:38:22.539Z,100.00
2019-04-20T02:40:51.125Z,100.00
2019-04-20T02:43:32.921Z,100.00
2019-04-20T02:45:57.752Z,100.00
2019-04-20T02:48:21.746Z,100.00
2019-04-20T02:50:56.228Z,100.00
2019-04-20T02:55:58.539Z,100.00
2019-04-20T02:58:22.945Z,100.00
2019-04-20T03:00:52.748Z,100.00
2019-04-20T03:03:10.212Z,100.00
2019-04-20T03:05:39.461Z,100.00
2019-04-20T03:08:19.120Z,100.00
2019-04-20T03:10:54.974Z,100.00
2019-04-20T03:13:18.324Z,100.00
2019-04-20T03:15:51.866Z,100.00
2019-04-20T03:18:19.656Z,100.00
2019-04-20T03:20:52.837Z,100.00
2019-04-20T03:23:31.320Z,100.00
2019-04-20T03:26:12.524Z,100.00
2019-04-20T03:28:54.080Z,100.00
2019-04-20T03:34:35.747Z,100.00
2019-04-20T03:36:45.317Z,100.00
2019-04-20T03:38:57.464Z,100.00
2019-04-20T03:41:22.505Z,100.00
2019-04-20T03:43:43.536Z,100.00
2019-04-20T03:46:17.402Z,100.00
2019-04-20T03:48:58.610Z,100.00
2019-04-20T03:51:42.373Z,100.00
2019-04-20T03:54:38.075Z,100.00
2019-04-20T03:57:29.372Z,100.00
2019-04-20T04:00:00.469Z,100.00
2019-04-20T04:02:57.569Z,100.00
2019-04-20T04:05:27.472Z,100.00
2019-04-20T04:07:50.868Z,100.00
2019-04-20T04:10:28.232Z,100.00
2019-04-20T04:13:09.605Z,100.00
2019-04-20T04:15:46.773Z,100.00
2019-04-20T04:18:17.749Z,100.00
2019-04-20T04:20:50.008Z,100.00
2019-04-20T04:23:32.957Z,100.00
2019-04-20T04:26:04.464Z,100.00
2019-04-20T04:28:31.167Z,100.00
2019-04-20T04:31:09.486Z,100.00
2019-04-20T04:33:55.803Z,100.00
2019-04-20T04:36:05.851Z,100.00
2019-04-20T04:38:44.674Z,100.00
2019-04-20T04:41:13.975Z,100.00
2019-04-20T04:43:39.734Z,100.00
2019-04-20T04:45:51.782Z,100.00
2019-04-20T04:48:28.266Z,100.00
2019-04-20T04:50:59.061Z,100.00
2019-04-20T04:53:38.872Z,100.00
2019-04-20T04:56:00.397Z,100.00
2019-04-20T04:58:25.666Z,100.00
2019-04-20T05:01:07.353Z,100.00
2019-04-20T05:03:44.726Z,100.00
2019-04-20T05:06:24.745Z,100.00
2019-04-20T05:08:43.779Z,100.00
2019-04-20T05:11:08.887Z,100.00
2019-04-20T05:13:47.955Z,100.00
2019-04-20T05:16:26.987Z,100.00
2019-04-20T05:19:02.153Z,100.00
2019-04-20T05:21:47.658Z,100.00
2019-04-20T05:24:33.749Z,100.00
2019-04-20T05:27:32.105Z,100.00
2019-04-20T05:29:39.822Z,100.00
2019-04-20T05:32:14.752Z,100.00
2019-04-20T05:35:07.367Z,100.00
2019-04-20T05:37:33.381Z,100.00
2019-04-20T05:40:07.428Z,100.00
2019-04-20T05:42:35.935Z,100.00
2019-04-20T05:45:09.066Z,100.00
2019-04-20T05:47:33.358Z,100.00
2019-04-20T05:50:01.467Z,100.00
2019-04-20T05:55:13.128Z,100.00
2019-04-20T05:57:42.251Z,100.00
2019-04-20T06:00:17.350Z,100.00
2019-04-20T06:02:44.132Z,100.00
2019-04-20T06:05:17.493Z,100.00
2019-04-20T06:07:48.836Z,100.00
2019-04-20T06:10:20.771Z,100.00
2019-04-20T06:12:50.286Z,100.00
2019-04-20T06:15:42.065Z,100.00
2019-04-20T06:18:06.701Z,100.00
2019-04-20T06:21:07.855Z,100.00
2019-04-20T06:23:42.772Z,100.00
2019-04-20T06:26:20.759Z,100.00
2019-04-20T06:28:32.242Z,100.00
2019-04-20T06:31:09.060Z,100.00
2019-04-20T06:36:53.684Z,100.00
2019-04-20T06:39:36.417Z,100.00
2019-04-20T06:44:33.185Z,100.00
2019-04-20T06:47:15.825Z,100.00
2019-04-20T06:49:35.133Z,100.00
2019-04-20T06:52:20.357Z,100.00
2019-04-20T06:54:57.967Z,100.00
2019-04-20T06:57:35.702Z,100.00
2019-04-20T07:00:07.466Z,100.00
2019-04-20T07:02:41.538Z,100.00
2019-04-20T07:07:43.239Z,100.00
2019-04-20T07:10:14.980Z,100.00
2019-04-20T07:12:39.875Z,100.00
2019-04-20T07:14:58.932Z,100.00
2019-04-20T07:17:54.646Z,100.00
2019-04-20T07:20:35.104Z,100.00
2019-04-20T07:23:11.964Z,100.00
2019-04-20T07:25:31.088Z,100.00
2019-04-20T07:28:05.441Z,100.00
2019-04-20T07:30:34.705Z,100.00
2019-04-20T07:33:04.126Z,100.00
2019-04-20T07:35:38.778Z,100.00
2019-04-20T07:40:36.088Z,100.00
2019-04-20T07:43:04.633Z,100.00
2019-04-20T07:45:46.229Z,100.00
2019-04-20T07:50:36.200Z,100.00
2019-04-20T07:53:08.647Z,100.00
2019-04-20T07:55:51.750Z,100.00
2019-04-20T07:58:10.060Z,100.00
2019-04-20T08:00:55.171Z,100.00
2019-04-20T08:03:39.090Z,100.00
2019-04-20T08:06:19.305Z,100.00
2019-04-20T08:08:57.396Z,100.00
2019-04-20T08:11:36.083Z,100.00
2019-04-20T08:14:06.107Z,100.00
2019-04-20T08:16:49.004Z,100.00
2019-04-20T08:19:08.201Z,100.00
2019-04-20T08:21:40.905Z,100.00
2019-04-20T08:24:07.458Z,100.00
2019-04-20T08:26:27.203Z,100.00
2019-04-20T08:29:01.544Z,100.00
2019-04-20T08:31:47.160Z,100.00
2019-04-20T08:34:31.317Z,100.00
2019-04-20T08:37:01.053Z,100.00
2019-04-20T08:42:00.249Z,84.59
2019-04-20T08:45:02.969Z,82.49
2019-04-20T08:47:10.259Z,83.88
2019-04-20T08:49:35.467Z,88.21
2019-04-20T08:52:36.729Z,88.21
2019-04-20T08:54:34.565Z,90.07
2019-04-20T08:56:54.786Z,95.29
2019-04-20T08:59:18.927Z,95.21
2019-04-20T09:01:48.936Z,100.00
2019-04-20T09:04:22.983Z,95.82
2019-04-20T09:07:04.058Z,99.12
2019-04-20T09:09:49.619Z,98.68
2019-04-20T09:12:40.594Z,96.16
2019-04-20T09:14:55.294Z,97.22
2019-04-20T09:17:41.008Z,94.63
2019-04-20T09:20:16.406Z,88.53
2019-04-20T09:23:08.115Z,91.79
2019-04-20T09:26:26.970Z,94.95
2019-04-20T09:29:13.935Z,91.70
2019-04-20T09:31:52.013Z,79.63
2019-04-20T09:34:51.318Z,86.34
2019-04-20T09:37:29.603Z,88.94
2019-04-20T09:40:04.762Z,80.58
2019-04-20T09:42:21.453Z,73.93
2019-04-20T09:44:55.555Z,75.58
2019-04-20T09:47:27.471Z,78.36
2019-04-20T09:50:03.339Z,74.49
2019-04-20T09:52:38.156Z,76.59
2019-04-20T09:55:09.466Z,74.55
2019-04-20T09:57:43.699Z,77.55
2019-04-20T10:00:12.065Z,78.84
2019-04-20T10:02:32.495Z,80.38
2019-04-20T10:04:59.749Z,74.72
2019-04-20T10:07:33.531Z,73.64
2019-04-20T10:10:00.351Z,72.01
2019-04-20T10:12:29.627Z,72.15
2019-04-20T10:15:06.553Z,73.10
2019-04-20T10:17:31.857Z,74.06
2019-04-20T10:20:02.565Z,75.26
2019-04-20T10:22:32.898Z,75.91
2019-04-20T10:25:08.755Z,71.95
2019-04-20T10:27:42.021Z,70.29
2019-04-20T10:30:12.469Z,66.75
2019-04-20T10:32:45.621Z,65.39
2019-04-20T10:35:15.110Z,70.77
2019-04-20T10:37:49.421Z,78.35
2019-04-20T10:40:34.455Z,72.36
2019-04-20T10:42:50.113Z,74.02
2019-04-20T10:45:21.161Z,73.15
2019-04-20T10:47:50.804Z,71.14
2019-04-20T10:50:20.941Z,73.91
2019-04-20T10:52:50.386Z,70.38
2019-04-20T10:55:20.746Z,68.38
2019-04-20T10:57:51.187Z,68.47
2019-04-20T11:00:26.150Z,65.13
2019-04-20T11:02:55.514Z,65.61
2019-04-20T11:05:24.737Z,63.90
2019-04-20T11:07:54.720Z,65.45
2019-04-20T11:10:28.591Z,68.80
2019-04-20T11:12:55.265Z,63.59
2019-04-20T11:15:26.252Z,59.30
2019-04-20T11:17:55.545Z,56.75
2019-04-20T11:20:25.549Z,59.19
2019-04-20T11:22:56.025Z,58.01
2019-04-20T11:25:35.522Z,59.63
2019-04-20T11:28:14.371Z,55.17
2019-04-20T11:30:44.314Z,56.08
2019-04-20T11:33:14.051Z,58.34
2019-04-20T11:35:45.268Z,60.39
2019-04-20T11:38:17.117Z,57.73
2019-04-20T11:40:48.249Z,52.80
2019-04-20T11:43:17.831Z,53.37
2019-04-20T11:45:47.153Z,52.68
2019-04-20T11:48:16.408Z,56.42
2019-04-20T11:50:45.624Z,53.29
2019-04-20T11:53:15.315Z,46.88
2019-04-20T11:55:44.793Z,50.38
2019-04-20T11:58:14.302Z,45.50
2019-04-20T12:00:58.625Z,53.54
2019-04-20T12:03:28.205Z,49.13
2019-04-20T12:05:56.990Z,45.29
2019-04-20T12:08:25.026Z,45.06
2019-04-20T12:10:58.396Z,43.83
2019-04-20T12:13:26.564Z,45.78
2019-04-20T12:15:56.137Z,47.70
2019-04-20T12:18:29.487Z,49.43
2019-04-20T12:20:59.002Z,50.33
2019-04-20T12:23:28.526Z,47.99
2019-04-20T12:25:59.710Z,47.52
2019-04-20T12:28:29.591Z,50.63
2019-04-20T12:31:04.039Z,50.28
2019-04-20T12:33:30.660Z,44.97
2019-04-20T12:36:03.183Z,47.28
2019-04-20T12:38:32.932Z,44.38
2019-04-20T12:41:04.837Z,44.32
2019-04-20T12:43:33.949Z,49.63
2019-04-20T12:46:03.289Z,50.88
2019-04-20T12:48:33.632Z,48.23
2019-04-20T12:51:11.395Z,49.23
2019-04-20T12:53:40.730Z,42.45
2019-04-20T12:56:10.671Z,43.48
2019-04-20T12:58:43.325Z,45.08
2019-04-20T13:01:12.198Z,44.15
2019-04-20T13:03:41.598Z,44.78
2019-04-20T13:06:12.115Z,44.53
2019-04-20T13:08:45.127Z,43.21
2019-04-20T13:11:26.719Z,44.45
2019-04-20T13:14:36.233Z,41.95
2019-04-20T13:17:06.214Z,42.34
2019-04-20T13:19:39.226Z,41.82
2019-04-20T13:22:08.851Z,38.08
2019-04-20T13:24:39.104Z,32.35
2019-04-20T13:27:09.014Z,31.60
2019-04-20T13:29:38.519Z,31.77
2019-04-20T13:32:07.767Z,28.49
2019-04-20T13:34:38.151Z,29.50
2019-04-20T13:37:08.455Z,32.19
2019-04-20T13:39:38.696Z,29.08
2019-04-20T13:42:15.025Z,26.79
2019-04-20T13:44:39.352Z,25.65
2019-04-20T13:47:09.177Z,25.32
2019-04-20T13:49:38.883Z,26.31
2019-04-20T13:52:08.771Z,25.17
2019-04-20T13:54:38.145Z,27.55
2019-04-20T13:57:08.303Z,26.32
2019-04-20T13:59:44.960Z,28.87
2019-04-20T14:02:22.721Z,28.07
2019-04-20T14:04:55.205Z,26.19
2019-04-20T14:07:25.453Z,25.34
2019-04-20T14:09:55.372Z,24.33
2019-04-20T14:12:31.562Z,24.55
2019-04-20T14:14:55.647Z,24.47
2019-04-20T14:17:26.401Z,24.70
2019-04-20T14:44:41.707Z,23.39
2019-04-20T14:47:11.899Z,22.45
2019-04-20T14:49:41.335Z,21.77
2019-04-20T14:52:11.473Z,22.36
2019-04-20T14:54:41.441Z,21.07
2019-04-20T14:57:11.712Z,21.60
2019-04-20T14:59:45.436Z,21.48
2019-04-20T15:02:17.371Z,22.13
2019-04-20T15:04:47.424Z,22.12
2019-04-20T15:07:16.645Z,25.15
2019-04-20T15:09:52.998Z,23.56
2019-04-20T15:12:22.259Z,24.52
2019-04-20T15:14:52.543Z,26.27
2019-04-20T15:17:37.530Z,24.83
2019-04-20T15:20:17.225Z,25.32
2019-04-20T15:22:49.841Z,23.23
2019-04-20T15:25:19.539Z,22.52
2019-04-20T15:27:49.980Z,22.85
2019-04-20T15:46:27.766Z,24.88
2019-04-20T15:48:57.741Z,22.97
2019-04-20T15:51:27.954Z,22.99
2019-04-20T15:53:57.719Z,21.25
2019-04-20T15:56:27.065Z,21.58
2019-04-20T15:58:58.843Z,20.94
2019-04-20T16:01:34.359Z,21.97
2019-04-20T16:04:11.747Z,23.62
2019-04-20T16:06:41.197Z,24.91
2019-04-20T16:09:12.371Z,24.97
2019-04-20T16:11:41.716Z,25.65
2019-04-20T16:14:10.949Z,25.93
2019-04-20T16:16:40.455Z,25.34
2019-04-20T16:27:15.710Z,25.42
2019-04-20T16:29:45.114Z,25.11
2019-04-20T16:32:32.730Z,25.27
2019-04-20T16:35:11.013Z,25.91
2019-04-20T16:37:40.357Z,26.83
2019-04-20T16:40:11.319Z,27.65
2019-04-20T16:42:42.266Z,27.75
2019-04-20T16:45:41.253Z,29.13
2019-04-20T16:48:10.836Z,30.94
2019-04-20T16:50:40.747Z,31.66
2019-04-20T16:53:10.767Z,32.72
2019-04-20T16:55:40.959Z,34.64
2019-04-20T16:58:10.325Z,36.14
2019-04-20T17:00:39.602Z,37.69
2019-04-20T17:03:09.195Z,37.97
2019-04-20T17:05:39.303Z,40.12
2019-04-20T17:08:11.137Z,40.81
2019-04-20T17:10:41.030Z,41.65
2019-04-20T17:49:57.586Z,48.01
2019-04-20T17:52:35.113Z,46.79
2019-04-20T17:54:51.566Z,48.17
2019-04-20T17:57:21.525Z,45.15
2019-04-20T17:59:59.682Z,43.76
2019-04-20T18:02:59.333Z,42.45
2019-04-20T18:05:44.832Z,44.39
2019-04-20T18:08:10.328Z,46.54
2019-04-20T18:10:35.161Z,44.69
2019-04-20T18:12:56.552Z,42.90
2019-04-20T18:15:40.385Z,43.36
2019-04-20T18:18:46.536Z,43.95
2019-04-20T18:21:26.548Z,44.81
2019-04-20T18:23:56.315Z,44.61
2019-04-20T18:26:43.242Z,45.21
2019-04-20T18:29:13.467Z,44.73
2019-04-20T18:31:49.359Z,46.00
2019-04-20T18:34:44.968Z,45.65
2019-04-20T18:37:16.912Z,47.66
2019-04-20T18:39:54.756Z,47.84
2019-04-20T18:42:24.950Z,48.39
2019-04-20T18:45:09.153Z,48.60
2019-04-20T18:47:44.249Z,49.55
2019-04-20T18:49:57.274Z,48.86
2019-04-20T18:52:20.037Z,48.68
2019-04-20T18:54:53.328Z,47.94
2019-04-20T18:57:27.207Z,47.12
2019-04-20T18:59:55.274Z,46.43
2019-04-20T19:02:29.408Z,47.23
2019-04-20T19:04:58.621Z,47.82
2019-04-20T19:07:27.984Z,46.77
2019-04-20T19:10:02.606Z,47.42
2019-04-20T19:12:41.494Z,48.81
2019-04-20T19:15:31.964Z,47.26
2019-04-20T19:18:06.807Z,47.26
2019-04-20T19:20:29.007Z,48.29
2019-04-20T19:22:59.942Z,49.23
2019-04-20T19:25:33.115Z,49.00
2019-04-20T19:28:02.865Z,48.57
2019-04-20T19:30:40.677Z,49.47
2019-04-20T19:33:18.994Z,49.49
2019-04-20T19:35:46.621Z,51.29
2019-04-20T19:38:12.595Z,51.91
2019-04-20T19:40:47.819Z,51.73
2019-04-20T19:43:15.679Z,52.75
2019-04-20T19:46:07.416Z,52.91
2019-04-20T19:48:22.713Z,51.85
2019-04-20T19:51:08.433Z,52.85
2019-04-20T19:53:32.454Z,52.51
2019-04-20T19:55:56.331Z,53.40
2019-04-20T19:58:28.443Z,53.56
2019-04-20T20:00:55.357Z,54.47
2019-04-20T20:03:23.869Z,54.47
2019-04-20T20:05:54.791Z,56.38
2019-04-20T20:08:28.142Z,55.12
2019-04-20T20:10:59.232Z,55.12
2019-04-20T20:13:33.218Z,56.37
2019-04-20T20:16:09.038Z,56.42
2019-04-20T20:18:46.596Z,56.50
2019-04-20T20:21:15.210Z,56.66
2019-04-20T20:23:32.185Z,57.85
2019-04-20T20:26:03.943Z,57.65
2019-04-20T20:28:43.682Z,58.55
2019-04-20T20:31:17.088Z,58.40
2019-04-20T20:33:52.841Z,60.12
2019-04-20T20:36:12.574Z,60.46
2019-04-20T20:38:46.870Z,60.51
2019-04-20T20:41:20.562Z,60.16
2019-04-20T20:43:56.316Z,61.15
2019-04-20T20:46:27.189Z,62.35
2019-04-20T20:49:21.753Z,61.94
2019-04-20T20:51:45.703Z,61.57
2019-04-20T20:54:03.244Z,61.16
2019-04-20T20:56:28.952Z,61.94
2019-04-20T20:59:04.007Z,64.29
2019-04-20T21:01:39.007Z,65.54
2019-04-20T21:03:58.572Z,67.78
2019-04-20T21:06:31.042Z,68.70
2019-04-20T21:09:02.036Z,75.37
2019-04-20T21:11:35.993Z,79.47
2019-04-20T21:14:24.315Z,84.66
2019-04-20T21:17:00.406Z,86.87
2019-04-20T21:19:36.879Z,89.82
2019-04-20T21:22:01.056Z,90.37
2019-04-20T21:24:30.371Z,90.03
2019-04-20T21:27:07.001Z,93.76
2019-04-20T21:29:37.827Z,96.12
2019-04-20T21:32:08.657Z,96.90
2019-04-20T21:34:33.432Z,99.03
2019-04-20T21:37:11.663Z,100.00
2019-04-20T21:39:42.465Z,100.00
2019-04-20T21:42:12.022Z,100.00
2019-04-20T21:44:41.351Z,100.00
2019-04-20T21:47:07.330Z,100.00
2019-04-20T21:49:49.662Z,100.00
2019-04-20T21:52:18.395Z,100.00
2019-04-20T21:54:42.242Z,100.00
2019-04-20T21:57:13.220Z,100.00
2019-04-20T21:59:48.343Z,100.00
2019-04-20T22:02:25.294Z,100.00
2019-04-20T22:04:51.429Z,100.00
2019-04-20T22:07:22.682Z,100.00
2019-04-20T22:09:56.881Z,100.00
2019-04-20T22:12:37.843Z,100.00
2019-04-20T22:15:07.451Z,100.00
2019-04-20T22:17:33.051Z,100.00
2019-04-20T22:20:18.900Z,100.00
2019-04-20T22:22:52.334Z,100.00
2019-04-20T22:25:28.374Z,100.00
2019-04-20T22:27:42.284Z,100.00
2019-04-20T22:30:14.431Z,100.00
2019-04-20T22:32:47.000Z,100.00
2019-04-20T22:35:17.502Z,100.00
2019-04-20T22:38:01.153Z,100.00
2019-04-20T22:40:31.995Z,100.00
2019-04-20T22:43:00.588Z,100.00
2019-04-20T22:45:33.961Z,100.00
2019-04-20T22:48:08.201Z,100.00
2019-04-20T22:50:45.959Z,100.00
2019-04-20T22:53:17.956Z,100.00
2019-04-20T22:55:57.738Z,100.00
2019-04-20T22:58:23.602Z,100.00
2019-04-20T23:00:45.255Z,100.00
2019-04-20T23:03:09.140Z,100.00
2019-04-20T23:05:38.700Z,100.00
2019-04-20T23:08:08.653Z,100.00
2019-04-20T23:10:42.213Z,100.00
2019-04-20T23:13:09.620Z,100.00
2019-04-20T23:15:42.416Z,100.00
2019-04-20T23:18:11.945Z,100.00
2019-04-20T23:20:42.771Z,100.00
2019-04-20T23:23:19.757Z,100.00
2019-04-20T23:25:47.228Z,100.00
2019-04-20T23:28:18.061Z,100.00
2019-04-20T23:30:51.895Z,100.00
2019-04-20T23:33:20.160Z,100.00
2019-04-20T23:35:54.662Z,100.00
2019-04-20T23:38:23.181Z,100.00
2019-04-20T23:40:52.216Z,100.00
2019-04-20T23:43:29.957Z,100.00
2019-04-20T23:46:17.256Z,100.00
2019-04-20T23:49:13.524Z,100.00
2019-04-20T23:52:00.697Z,100.00
2019-04-20T23:54:13.843Z,100.00
2019-04-20T23:56:39.834Z,100.00
2019-04-20T23:59:10.562Z,100.00
